sensor_id;sensor_type;location;lat;lon;timestamp;P1;durP1;ratioP1;P2;durP2;ratioP2
3433;SDS011;1730;41.932;25.548;2022-10-17T00:00:23;12.00;;;9.50;;
3433;SDS011;1730;41.932;25.548;2022-10-17T00:02:49;16.70;;;10.90;;
3433;SDS011;1730;41.932;25.548;2022-10-17T00:05:14;16.57;;;10.63;;
3433;SDS011;1730;41.932;25.548;2022-10-17T00:07:40;17.77;;;11.20;;
3433;SDS011;1730;41.932;25.548;2022-10-17T00:10:06;18.90;;;9.80;;
3433;SDS011;1730;41.932;25.548;2022-10-17T00:12:33;19.43;;;10.37;;
3433;SDS011;1730;41.932;25.548;2022-10-17T00:15:01;29.80;;;11.10;;
3433;SDS011;1730;41.932;25.548;2022-10-17T00:17:27;24.00;;;10.50;;
3433;SDS011;1730;41.932;25.548;2022-10-17T00:19:53;18.70;;;10.33;;
3433;SDS011;1730;41.932;25.548;2022-10-17T00:22:18;12.23;;;10.43;;
3433;SDS011;1730;41.932;25.548;2022-10-17T00:24:44;14.73;;;10.00;;
3433;SDS011;1730;41.932;25.548;2022-10-17T00:27:09;15.27;;;9.40;;
3433;SDS011;1730;41.932;25.548;2022-10-17T00:29:35;21.60;;;10.00;;
3433;SDS011;1730;41.932;25.548;2022-10-17T00:32:00;11.10;;;9.33;;
3433;SDS011;1730;41.932;25.548;2022-10-17T00:34:27;17.10;;;10.43;;
3433;SDS011;1730;41.932;25.548;2022-10-17T00:36:53;12.20;;;8.97;;
3433;SDS011;1730;41.932;25.548;2022-10-17T00:39:18;18.50;;;9.30;;
3433;SDS011;1730;41.932;25.548;2022-10-17T00:41:44;14.10;;;10.27;;
3433;SDS011;1730;41.932;25.548;2022-10-17T00:46:54;14.97;;;9.17;;
3433;SDS011;1730;41.932;25.548;2022-10-17T00:49:23;16.40;;;9.27;;
3433;SDS011;1730;41.932;25.548;2022-10-17T00:51:53;11.33;;;8.47;;
3433;SDS011;1730;41.932;25.548;2022-10-17T00:54:22;13.67;;;9.97;;
3433;SDS011;1730;41.932;25.548;2022-10-17T00:56:51;14.00;;;8.60;;
3433;SDS011;1730;41.932;25.548;2022-10-17T00:59:19;9.10;;;8.10;;
3433;SDS011;1730;41.932;25.548;2022-10-17T01:01:48;10.47;;;8.50;;
3433;SDS011;1730;41.932;25.548;2022-10-17T01:04:20;10.37;;;8.80;;
3433;SDS011;1730;41.932;25.548;2022-10-17T01:06:46;12.53;;;8.30;;
3433;SDS011;1730;41.932;25.548;2022-10-17T01:09:12;9.03;;;8.03;;
3433;SDS011;1730;41.932;25.548;2022-10-17T01:11:58;14.87;;;8.67;;
3433;SDS011;1730;41.932;25.548;2022-10-17T01:17:21;10.00;;;8.20;;
3433;SDS011;1730;41.932;25.548;2022-10-17T01:22:37;11.07;;;8.40;;
3433;SDS011;1730;41.932;25.548;2022-10-17T01:25:17;12.93;;;8.90;;
3433;SDS011;1730;41.932;25.548;2022-10-17T01:33:13;8.00;;;7.03;;
3433;SDS011;1730;41.932;25.548;2022-10-17T01:35:49;11.00;;;7.67;;
3433;SDS011;1730;41.932;25.548;2022-10-17T01:38:21;11.70;;;8.03;;
3433;SDS011;1730;41.932;25.548;2022-10-17T01:40:54;12.13;;;7.30;;
3433;SDS011;1730;41.932;25.548;2022-10-17T01:43:25;10.87;;;7.07;;
3433;SDS011;1730;41.932;25.548;2022-10-17T01:45:58;12.03;;;7.70;;
3433;SDS011;1730;41.932;25.548;2022-10-17T01:48:35;14.10;;;8.67;;
3433;SDS011;1730;41.932;25.548;2022-10-17T01:51:05;18.23;;;7.97;;
3433;SDS011;1730;41.932;25.548;2022-10-17T01:53:40;9.20;;;7.83;;
3433;SDS011;1730;41.932;25.548;2022-10-17T01:56:11;10.07;;;8.33;;
3433;SDS011;1730;41.932;25.548;2022-10-17T01:58:44;14.03;;;9.07;;
3433;SDS011;1730;41.932;25.548;2022-10-17T02:01:14;12.60;;;8.00;;
3433;SDS011;1730;41.932;25.548;2022-10-17T02:03:41;15.03;;;8.73;;
3433;SDS011;1730;41.932;25.548;2022-10-17T02:06:09;14.30;;;8.70;;
3433;SDS011;1730;41.932;25.548;2022-10-17T02:08:45;10.73;;;8.50;;
3433;SDS011;1730;41.932;25.548;2022-10-17T02:22:06;19.93;;;8.67;;
3433;SDS011;1730;41.932;25.548;2022-10-17T02:25:21;22.03;;;9.90;;
3433;SDS011;1730;41.932;25.548;2022-10-17T02:27:58;14.67;;;9.60;;
3433;SDS011;1730;41.932;25.548;2022-10-17T02:33:42;15.73;;;9.60;;
3433;SDS011;1730;41.932;25.548;2022-10-17T02:36:18;12.13;;;9.47;;
3433;SDS011;1730;41.932;25.548;2022-10-17T02:38:47;11.43;;;9.40;;
3433;SDS011;1730;41.932;25.548;2022-10-17T02:41:15;13.77;;;9.43;;
3433;SDS011;1730;41.932;25.548;2022-10-17T02:43:43;14.20;;;8.97;;
3433;SDS011;1730;41.932;25.548;2022-10-17T02:46:15;13.33;;;9.40;;
3433;SDS011;1730;41.932;25.548;2022-10-17T02:48:54;12.50;;;8.30;;
3433;SDS011;1730;41.932;25.548;2022-10-17T02:56:31;9.10;;;8.20;;
3433;SDS011;1730;41.932;25.548;2022-10-17T02:59:05;15.87;;;8.37;;
3433;SDS011;1730;41.932;25.548;2022-10-17T03:01:33;16.30;;;9.40;;
3433;SDS011;1730;41.932;25.548;2022-10-17T03:04:18;10.03;;;7.93;;
3433;SDS011;1730;41.932;25.548;2022-10-17T03:06:44;11.90;;;8.10;;
3433;SDS011;1730;41.932;25.548;2022-10-17T03:09:11;11.80;;;7.70;;
3433;SDS011;1730;41.932;25.548;2022-10-17T03:11:37;11.90;;;7.43;;
3433;SDS011;1730;41.932;25.548;2022-10-17T03:14:03;17.80;;;8.47;;
3433;SDS011;1730;41.932;25.548;2022-10-17T03:16:28;8.13;;;6.97;;
3433;SDS011;1730;41.932;25.548;2022-10-17T03:18:54;11.50;;;7.97;;
3433;SDS011;1730;41.932;25.548;2022-10-17T03:21:19;10.53;;;7.70;;
3433;SDS011;1730;41.932;25.548;2022-10-17T03:23:45;14.20;;;7.40;;
3433;SDS011;1730;41.932;25.548;2022-10-17T03:26:10;8.30;;;7.40;;
3433;SDS011;1730;41.932;25.548;2022-10-17T03:28:36;10.07;;;8.20;;
3433;SDS011;1730;41.932;25.548;2022-10-17T03:31:05;12.07;;;8.93;;
3433;SDS011;1730;41.932;25.548;2022-10-17T03:33:32;9.53;;;7.97;;
3433;SDS011;1730;41.932;25.548;2022-10-17T03:35:58;12.53;;;8.70;;
3433;SDS011;1730;41.932;25.548;2022-10-17T03:38:23;11.70;;;8.37;;
3433;SDS011;1730;41.932;25.548;2022-10-17T03:40:55;10.60;;;8.77;;
3433;SDS011;1730;41.932;25.548;2022-10-17T03:43:20;14.77;;;9.43;;
3433;SDS011;1730;41.932;25.548;2022-10-17T03:45:46;8.50;;;7.70;;
3433;SDS011;1730;41.932;25.548;2022-10-17T03:48:11;11.20;;;8.10;;
3433;SDS011;1730;41.932;25.548;2022-10-17T03:50:37;10.63;;;9.53;;
3433;SDS011;1730;41.932;25.548;2022-10-17T03:53:02;16.27;;;8.43;;
3433;SDS011;1730;41.932;25.548;2022-10-17T03:55:28;10.03;;;7.57;;
3433;SDS011;1730;41.932;25.548;2022-10-17T03:57:55;10.17;;;8.10;;
3433;SDS011;1730;41.932;25.548;2022-10-17T04:00:20;10.27;;;8.27;;
3433;SDS011;1730;41.932;25.548;2022-10-17T04:02:46;10.60;;;7.70;;
3433;SDS011;1730;41.932;25.548;2022-10-17T04:05:11;13.73;;;8.30;;
3433;SDS011;1730;41.932;25.548;2022-10-17T04:07:37;9.53;;;8.57;;
3433;SDS011;1730;41.932;25.548;2022-10-17T04:10:03;19.47;;;13.23;;
3433;SDS011;1730;41.932;25.548;2022-10-17T04:12:29;21.73;;;14.33;;
3433;SDS011;1730;41.932;25.548;2022-10-17T04:14:55;15.77;;;12.13;;
3433;SDS011;1730;41.932;25.548;2022-10-17T04:17:21;14.73;;;11.13;;
3433;SDS011;1730;41.932;25.548;2022-10-17T04:19:47;12.13;;;10.50;;
3433;SDS011;1730;41.932;25.548;2022-10-17T04:22:14;10.73;;;8.60;;
3433;SDS011;1730;41.932;25.548;2022-10-17T04:24:39;14.50;;;9.53;;
3433;SDS011;1730;41.932;25.548;2022-10-17T04:27:05;16.87;;;10.07;;
3433;SDS011;1730;41.932;25.548;2022-10-17T04:29:30;14.07;;;9.20;;
3433;SDS011;1730;41.932;25.548;2022-10-17T04:31:56;21.30;;;9.93;;
3433;SDS011;1730;41.932;25.548;2022-10-17T04:34:23;21.43;;;10.40;;
3433;SDS011;1730;41.932;25.548;2022-10-17T04:36:48;15.10;;;9.80;;
3433;SDS011;1730;41.932;25.548;2022-10-17T04:39:16;15.23;;;9.60;;
3433;SDS011;1730;41.932;25.548;2022-10-17T04:41:41;14.80;;;10.20;;
3433;SDS011;1730;41.932;25.548;2022-10-17T04:44:08;14.30;;;9.77;;
3433;SDS011;1730;41.932;25.548;2022-10-17T04:46:34;18.67;;;10.10;;
3433;SDS011;1730;41.932;25.548;2022-10-17T04:49:00;14.93;;;9.97;;
3433;SDS011;1730;41.932;25.548;2022-10-17T04:51:26;15.53;;;10.40;;
3433;SDS011;1730;41.932;25.548;2022-10-17T04:53:51;13.97;;;10.10;;
3433;SDS011;1730;41.932;25.548;2022-10-17T04:56:18;20.43;;;9.70;;
3433;SDS011;1730;41.932;25.548;2022-10-17T04:58:47;17.53;;;10.27;;
3433;SDS011;1730;41.932;25.548;2022-10-17T05:01:14;19.77;;;10.17;;
3433;SDS011;1730;41.932;25.548;2022-10-17T05:03:42;18.97;;;10.30;;
3433;SDS011;1730;41.932;25.548;2022-10-17T05:06:09;13.80;;;8.80;;
3433;SDS011;1730;41.932;25.548;2022-10-17T05:08:37;13.73;;;9.57;;
3433;SDS011;1730;41.932;25.548;2022-10-17T05:11:03;21.77;;;12.87;;
3433;SDS011;1730;41.932;25.548;2022-10-17T05:13:30;20.77;;;11.90;;
3433;SDS011;1730;41.932;25.548;2022-10-17T05:15:57;19.77;;;11.17;;
3433;SDS011;1730;41.932;25.548;2022-10-17T05:18:24;18.30;;;10.27;;
3433;SDS011;1730;41.932;25.548;2022-10-17T05:20:50;12.90;;;9.40;;
3433;SDS011;1730;41.932;25.548;2022-10-17T05:23:15;18.50;;;12.70;;
3433;SDS011;1730;41.932;25.548;2022-10-17T05:25:41;20.00;;;12.13;;
3433;SDS011;1730;41.932;25.548;2022-10-17T05:28:06;18.13;;;11.90;;
3433;SDS011;1730;41.932;25.548;2022-10-17T05:30:33;23.17;;;11.80;;
3433;SDS011;1730;41.932;25.548;2022-10-17T05:32:59;25.57;;;12.77;;
3433;SDS011;1730;41.932;25.548;2022-10-17T05:35:25;18.63;;;11.47;;
3433;SDS011;1730;41.932;25.548;2022-10-17T05:37:50;23.00;;;12.20;;
3433;SDS011;1730;41.932;25.548;2022-10-17T05:40:16;39.30;;;15.23;;
3433;SDS011;1730;41.932;25.548;2022-10-17T05:42:48;25.93;;;13.93;;
3433;SDS011;1730;41.932;25.548;2022-10-17T05:45:14;23.37;;;11.80;;
3433;SDS011;1730;41.932;25.548;2022-10-17T05:47:40;17.37;;;10.93;;
3433;SDS011;1730;41.932;25.548;2022-10-17T05:50:06;14.47;;;10.50;;
3433;SDS011;1730;41.932;25.548;2022-10-17T05:52:33;14.03;;;10.60;;
3433;SDS011;1730;41.932;25.548;2022-10-17T05:54:58;20.47;;;9.80;;
3433;SDS011;1730;41.932;25.548;2022-10-17T05:57:24;16.57;;;9.87;;
3433;SDS011;1730;41.932;25.548;2022-10-17T05:59:50;20.47;;;9.10;;
3433;SDS011;1730;41.932;25.548;2022-10-17T06:02:16;14.13;;;9.60;;
3433;SDS011;1730;41.932;25.548;2022-10-17T06:04:41;12.53;;;9.90;;
3433;SDS011;1730;41.932;25.548;2022-10-17T06:07:13;15.00;;;9.63;;
3433;SDS011;1730;41.932;25.548;2022-10-17T06:09:39;16.67;;;10.60;;
3433;SDS011;1730;41.932;25.548;2022-10-17T06:12:05;15.83;;;10.23;;
3433;SDS011;1730;41.932;25.548;2022-10-17T06:14:31;15.70;;;9.90;;
3433;SDS011;1730;41.932;25.548;2022-10-17T06:16:57;28.07;;;11.00;;
3433;SDS011;1730;41.932;25.548;2022-10-17T06:19:23;25.37;;;12.90;;
3433;SDS011;1730;41.932;25.548;2022-10-17T06:21:48;13.50;;;9.80;;
3433;SDS011;1730;41.932;25.548;2022-10-17T06:24:14;22.10;;;11.33;;
3433;SDS011;1730;41.932;25.548;2022-10-17T06:26:39;17.97;;;11.53;;
3433;SDS011;1730;41.932;25.548;2022-10-17T06:29:05;14.03;;;9.53;;
3433;SDS011;1730;41.932;25.548;2022-10-17T06:31:31;15.30;;;10.20;;
3433;SDS011;1730;41.932;25.548;2022-10-17T06:33:57;13.33;;;8.47;;
3433;SDS011;1730;41.932;25.548;2022-10-17T06:36:22;14.63;;;8.57;;
3433;SDS011;1730;41.932;25.548;2022-10-17T06:38:48;12.10;;;8.07;;
3433;SDS011;1730;41.932;25.548;2022-10-17T06:41:14;12.03;;;7.00;;
3433;SDS011;1730;41.932;25.548;2022-10-17T06:43:43;14.57;;;6.80;;
3433;SDS011;1730;41.932;25.548;2022-10-17T06:46:10;8.80;;;6.07;;
3433;SDS011;1730;41.932;25.548;2022-10-17T06:48:37;7.53;;;6.33;;
3433;SDS011;1730;41.932;25.548;2022-10-17T06:51:03;9.20;;;7.40;;
3433;SDS011;1730;41.932;25.548;2022-10-17T06:53:30;11.50;;;6.30;;
3433;SDS011;1730;41.932;25.548;2022-10-17T06:55:57;7.80;;;6.83;;
3433;SDS011;1730;41.932;25.548;2022-10-17T06:58:31;34.60;;;18.03;;
3433;SDS011;1730;41.932;25.548;2022-10-17T07:01:00;8.00;;;7.00;;
3433;SDS011;1730;41.932;25.548;2022-10-17T07:03:27;11.63;;;7.80;;
3433;SDS011;1730;41.932;25.548;2022-10-17T07:05:54;9.90;;;7.10;;
3433;SDS011;1730;41.932;25.548;2022-10-17T07:08:20;9.73;;;7.10;;
3433;SDS011;1730;41.932;25.548;2022-10-17T07:10:46;9.10;;;7.37;;
3433;SDS011;1730;41.932;25.548;2022-10-17T07:13:12;8.13;;;7.33;;
3433;SDS011;1730;41.932;25.548;2022-10-17T07:15:38;8.40;;;6.80;;
3433;SDS011;1730;41.932;25.548;2022-10-17T07:18:04;8.30;;;7.27;;
3433;SDS011;1730;41.932;25.548;2022-10-17T07:20:30;6.93;;;5.90;;
3433;SDS011;1730;41.932;25.548;2022-10-17T07:22:56;12.93;;;5.70;;
3433;SDS011;1730;41.932;25.548;2022-10-17T07:25:22;6.90;;;6.10;;
3433;SDS011;1730;41.932;25.548;2022-10-17T07:27:50;7.00;;;6.40;;
3433;SDS011;1730;41.932;25.548;2022-10-17T07:30:16;6.77;;;6.10;;
3433;SDS011;1730;41.932;25.548;2022-10-17T07:32:42;12.20;;;6.90;;
3433;SDS011;1730;41.932;25.548;2022-10-17T07:35:09;13.10;;;6.83;;
3433;SDS011;1730;41.932;25.548;2022-10-17T07:37:36;8.50;;;6.27;;
3433;SDS011;1730;41.932;25.548;2022-10-17T07:40:02;6.40;;;5.90;;
3433;SDS011;1730;41.932;25.548;2022-10-17T07:42:30;11.83;;;6.43;;
3433;SDS011;1730;41.932;25.548;2022-10-17T07:44:56;12.70;;;7.63;;
3433;SDS011;1730;41.932;25.548;2022-10-17T07:47:22;14.43;;;6.90;;
3433;SDS011;1730;41.932;25.548;2022-10-17T07:49:48;7.83;;;5.80;;
3433;SDS011;1730;41.932;25.548;2022-10-17T07:52:14;9.03;;;6.30;;
3433;SDS011;1730;41.932;25.548;2022-10-17T07:54:40;9.00;;;6.27;;
3433;SDS011;1730;41.932;25.548;2022-10-17T07:57:07;7.20;;;6.43;;
3433;SDS011;1730;41.932;25.548;2022-10-17T07:59:33;6.20;;;5.70;;
3433;SDS011;1730;41.932;25.548;2022-10-17T08:02:00;6.27;;;5.40;;
3433;SDS011;1730;41.932;25.548;2022-10-17T08:04:25;10.43;;;5.83;;
3433;SDS011;1730;41.932;25.548;2022-10-17T08:06:51;7.23;;;4.93;;
3433;SDS011;1730;41.932;25.548;2022-10-17T08:09:17;5.43;;;4.87;;
3433;SDS011;1730;41.932;25.548;2022-10-17T08:11:43;6.63;;;6.00;;
3433;SDS011;1730;41.932;25.548;2022-10-17T08:14:10;5.93;;;5.33;;
3433;SDS011;1730;41.932;25.548;2022-10-17T08:16:37;4.80;;;4.40;;
3433;SDS011;1730;41.932;25.548;2022-10-17T08:19:03;6.60;;;5.10;;
3433;SDS011;1730;41.932;25.548;2022-10-17T08:21:29;8.63;;;4.60;;
3433;SDS011;1730;41.932;25.548;2022-10-17T08:23:54;7.77;;;4.20;;
3433;SDS011;1730;41.932;25.548;2022-10-17T08:26:20;30.07;;;19.00;;
3433;SDS011;1730;41.932;25.548;2022-10-17T08:28:46;4.30;;;4.00;;
3433;SDS011;1730;41.932;25.548;2022-10-17T08:31:14;5.43;;;4.93;;
3433;SDS011;1730;41.932;25.548;2022-10-17T08:33:45;8.90;;;5.03;;
3433;SDS011;1730;41.932;25.548;2022-10-17T08:36:12;4.70;;;4.40;;
3433;SDS011;1730;41.932;25.548;2022-10-17T08:38:39;5.40;;;3.90;;
3433;SDS011;1730;41.932;25.548;2022-10-17T08:41:16;3.70;;;3.40;;
3433;SDS011;1730;41.932;25.548;2022-10-17T08:44:12;4.47;;;4.17;;
3433;SDS011;1730;41.932;25.548;2022-10-17T08:46:48;3.37;;;3.07;;
3433;SDS011;1730;41.932;25.548;2022-10-17T08:49:37;6.63;;;3.57;;
3433;SDS011;1730;41.932;25.548;2022-10-17T08:54:56;3.80;;;3.03;;
3433;SDS011;1730;41.932;25.548;2022-10-17T08:57:22;3.97;;;3.60;;
3433;SDS011;1730;41.932;25.548;2022-10-17T08:59:51;3.30;;;3.00;;
3433;SDS011;1730;41.932;25.548;2022-10-17T09:05:27;3.57;;;3.27;;
3433;SDS011;1730;41.932;25.548;2022-10-17T09:13:56;3.57;;;3.27;;
3433;SDS011;1730;41.932;25.548;2022-10-17T09:16:48;7.60;;;3.43;;
3433;SDS011;1730;41.932;25.548;2022-10-17T09:19:34;4.80;;;3.60;;
3433;SDS011;1730;41.932;25.548;2022-10-17T09:22:20;3.60;;;2.83;;
3433;SDS011;1730;41.932;25.548;2022-10-17T09:24:54;6.87;;;3.40;;
3433;SDS011;1730;41.932;25.548;2022-10-17T09:27:47;3.40;;;3.10;;
3433;SDS011;1730;41.932;25.548;2022-10-17T09:33:36;3.43;;;3.17;;
3433;SDS011;1730;41.932;25.548;2022-10-17T09:35:58;3.83;;;3.53;;
3433;SDS011;1730;41.932;25.548;2022-10-17T09:38:25;5.13;;;3.57;;
3433;SDS011;1730;41.932;25.548;2022-10-17T09:40:59;3.90;;;3.13;;
3433;SDS011;1730;41.932;25.548;2022-10-17T09:43:26;4.33;;;3.03;;
3433;SDS011;1730;41.932;25.548;2022-10-17T09:48:37;8.27;;;4.30;;
3433;SDS011;1730;41.932;25.548;2022-10-17T09:51:07;4.67;;;3.37;;
3433;SDS011;1730;41.932;25.548;2022-10-17T09:53:35;3.67;;;3.33;;
3433;SDS011;1730;41.932;25.548;2022-10-17T09:56:08;4.17;;;3.77;;
3433;SDS011;1730;41.932;25.548;2022-10-17T09:58:42;3.40;;;3.00;;
3433;SDS011;1730;41.932;25.548;2022-10-17T10:01:25;6.53;;;3.80;;
3433;SDS011;1730;41.932;25.548;2022-10-17T10:06:39;3.80;;;3.27;;
3433;SDS011;1730;41.932;25.548;2022-10-17T10:09:06;4.03;;;2.90;;
3433;SDS011;1730;41.932;25.548;2022-10-17T10:11:56;11.63;;;3.30;;
3433;SDS011;1730;41.932;25.548;2022-10-17T10:14:32;8.03;;;3.43;;
3433;SDS011;1730;41.932;25.548;2022-10-17T10:16:59;6.23;;;3.77;;
3433;SDS011;1730;41.932;25.548;2022-10-17T10:19:28;3.57;;;3.13;;
3433;SDS011;1730;41.932;25.548;2022-10-17T10:21:56;4.20;;;3.90;;
3433;SDS011;1730;41.932;25.548;2022-10-17T10:24:26;4.53;;;3.80;;
3433;SDS011;1730;41.932;25.548;2022-10-17T10:26:53;16.57;;;4.43;;
3433;SDS011;1730;41.932;25.548;2022-10-17T10:34:49;3.50;;;3.20;;
3433;SDS011;1730;41.932;25.548;2022-10-17T10:37:17;4.53;;;4.13;;
3433;SDS011;1730;41.932;25.548;2022-10-17T10:39:48;7.13;;;4.57;;
3433;SDS011;1730;41.932;25.548;2022-10-17T10:44:54;3.80;;;3.50;;
3433;SDS011;1730;41.932;25.548;2022-10-17T10:47:27;4.40;;;4.00;;
3433;SDS011;1730;41.932;25.548;2022-10-17T11:01:18;23.67;;;4.90;;
3433;SDS011;1730;41.932;25.548;2022-10-17T11:06:45;3.77;;;3.43;;
3433;SDS011;1730;41.932;25.548;2022-10-17T11:11:58;7.47;;;3.63;;
3433;SDS011;1730;41.932;25.548;2022-10-17T11:14:41;9.77;;;4.10;;
3433;SDS011;1730;41.932;25.548;2022-10-17T11:17:16;7.87;;;3.90;;
3433;SDS011;1730;41.932;25.548;2022-10-17T11:19:45;5.27;;;3.80;;
3433;SDS011;1730;41.932;25.548;2022-10-17T11:22:25;5.13;;;4.63;;
3433;SDS011;1730;41.932;25.548;2022-10-17T11:27:43;9.47;;;4.00;;
3433;SDS011;1730;41.932;25.548;2022-10-17T11:30:12;7.80;;;3.73;;
3433;SDS011;1730;41.932;25.548;2022-10-17T11:32:53;8.30;;;3.50;;
3433;SDS011;1730;41.932;25.548;2022-10-17T11:35:24;5.00;;;3.90;;
3433;SDS011;1730;41.932;25.548;2022-10-17T11:38:05;4.40;;;4.10;;
3433;SDS011;1730;41.932;25.548;2022-10-17T11:40:43;6.07;;;3.90;;
3433;SDS011;1730;41.932;25.548;2022-10-17T11:45:51;3.77;;;3.37;;
3433;SDS011;1730;41.932;25.548;2022-10-17T11:48:21;9.67;;;4.33;;
3433;SDS011;1730;41.932;25.548;2022-10-17T11:56:56;8.40;;;3.30;;
3433;SDS011;1730;41.932;25.548;2022-10-17T12:02:20;6.50;;;3.20;;
3433;SDS011;1730;41.932;25.548;2022-10-17T12:15:57;4.87;;;3.33;;
3433;SDS011;1730;41.932;25.548;2022-10-17T12:18:43;5.97;;;3.23;;
3433;SDS011;1730;41.932;25.548;2022-10-17T12:29:16;3.97;;;3.57;;
3433;SDS011;1730;41.932;25.548;2022-10-17T12:32:25;13.60;;;3.30;;
3433;SDS011;1730;41.932;25.548;2022-10-17T12:34:52;6.00;;;4.10;;
3433;SDS011;1730;41.932;25.548;2022-10-17T12:45:50;3.53;;;3.00;;
3433;SDS011;1730;41.932;25.548;2022-10-17T12:56:40;3.97;;;3.57;;
3433;SDS011;1730;41.932;25.548;2022-10-17T13:02:03;69.57;;;21.60;;
3433;SDS011;1730;41.932;25.548;2022-10-17T13:04:36;8.43;;;3.93;;
3433;SDS011;1730;41.932;25.548;2022-10-17T13:07:02;12.33;;;4.23;;
3433;SDS011;1730;41.932;25.548;2022-10-17T13:09:32;4.70;;;4.30;;
3433;SDS011;1730;41.932;25.548;2022-10-17T13:12:02;9.34;;;4.14;;
3433;SDS011;1730;41.932;25.548;2022-10-17T13:17:06;10.70;;;4.53;;
3433;SDS011;1730;41.932;25.548;2022-10-17T13:19:56;5.97;;;4.07;;
3433;SDS011;1730;41.932;25.548;2022-10-17T13:25:14;5.13;;;3.73;;
3433;SDS011;1730;41.932;25.548;2022-10-17T13:27:42;14.43;;;4.30;;
3433;SDS011;1730;41.932;25.548;2022-10-17T13:35:36;7.30;;;3.97;;
3433;SDS011;1730;41.932;25.548;2022-10-17T13:58:56;0.80;;;0.40;;
3433;SDS011;1730;41.932;25.548;2022-10-17T14:01:26;0.80;;;0.50;;
3433;SDS011;1730;41.932;25.548;2022-10-17T14:03:54;0.90;;;0.60;;
3433;SDS011;1730;41.932;25.548;2022-10-17T14:06:23;0.80;;;0.50;;
3433;SDS011;1730;41.932;25.548;2022-10-17T14:09:01;0.90;;;0.67;;
3433;SDS011;1730;41.932;25.548;2022-10-17T14:14:18;0.80;;;0.40;;
3433;SDS011;1730;41.932;25.548;2022-10-17T14:16:46;1.77;;;0.60;;
3433;SDS011;1730;41.932;25.548;2022-10-17T14:19:25;0.80;;;0.60;;
3433;SDS011;1730;41.932;25.548;2022-10-17T14:22:27;0.80;;;0.40;;
3433;SDS011;1730;41.932;25.548;2022-10-17T14:24:54;0.90;;;0.50;;
3433;SDS011;1730;41.932;25.548;2022-10-17T14:27:23;0.80;;;0.40;;
3433;SDS011;1730;41.932;25.548;2022-10-17T14:29:57;1.23;;;1.13;;
3433;SDS011;1730;41.932;25.548;2022-10-17T14:32:32;0.80;;;0.40;;
3433;SDS011;1730;41.932;25.548;2022-10-17T14:35:15;0.80;;;0.40;;
3433;SDS011;1730;41.932;25.548;2022-10-17T14:37:35;1.20;;;1.10;;
3433;SDS011;1730;41.932;25.548;2022-10-17T14:40:17;0.80;;;0.50;;
3433;SDS011;1730;41.932;25.548;2022-10-17T14:42:45;0.80;;;0.40;;
3433;SDS011;1730;41.932;25.548;2022-10-17T14:45:31;0.80;;;0.50;;
3433;SDS011;1730;41.932;25.548;2022-10-17T14:48:00;0.80;;;0.40;;
3433;SDS011;1730;41.932;25.548;2022-10-17T14:50:33;0.90;;;0.70;;
3433;SDS011;1730;41.932;25.548;2022-10-17T14:53:04;0.80;;;0.40;;
3433;SDS011;1730;41.932;25.548;2022-10-17T14:55:39;4.83;;;1.73;;
3433;SDS011;1730;41.932;25.548;2022-10-17T14:58:32;0.80;;;0.50;;
3433;SDS011;1730;41.932;25.548;2022-10-17T15:12:39;0.80;;;0.40;;
3433;SDS011;1730;41.932;25.548;2022-10-17T15:15:06;0.93;;;0.60;;
3433;SDS011;1730;41.932;25.548;2022-10-17T15:17:32;0.80;;;0.40;;
3433;SDS011;1730;41.932;25.548;2022-10-17T15:19:58;0.80;;;0.40;;
3433;SDS011;1730;41.932;25.548;2022-10-17T15:22:24;0.80;;;0.40;;
3433;SDS011;1730;41.932;25.548;2022-10-17T15:24:49;0.80;;;0.47;;
3433;SDS011;1730;41.932;25.548;2022-10-17T15:27:16;0.80;;;0.40;;
3433;SDS011;1730;41.932;25.548;2022-10-17T15:29:44;0.80;;;0.50;;
3433;SDS011;1730;41.932;25.548;2022-10-17T15:32:10;0.80;;;0.40;;
3433;SDS011;1730;41.932;25.548;2022-10-17T15:34:36;0.80;;;0.43;;
3433;SDS011;1730;41.932;25.548;2022-10-17T15:37:02;0.80;;;0.50;;
3433;SDS011;1730;41.932;25.548;2022-10-17T15:39:29;0.80;;;0.40;;
3433;SDS011;1730;41.932;25.548;2022-10-17T15:41:55;0.80;;;0.40;;
3433;SDS011;1730;41.932;25.548;2022-10-17T15:44:23;0.80;;;0.40;;
3433;SDS011;1730;41.932;25.548;2022-10-17T15:46:51;0.80;;;0.40;;
3433;SDS011;1730;41.932;25.548;2022-10-17T15:49:16;0.80;;;0.50;;
3433;SDS011;1730;41.932;25.548;2022-10-17T15:51:44;0.80;;;0.40;;
3433;SDS011;1730;41.932;25.548;2022-10-17T15:54:09;0.80;;;0.40;;
3433;SDS011;1730;41.932;25.548;2022-10-17T15:56:45;0.80;;;0.40;;
3433;SDS011;1730;41.932;25.548;2022-10-17T15:59:24;0.80;;;0.40;;
3433;SDS011;1730;41.932;25.548;2022-10-17T16:01:53;0.80;;;0.40;;
3433;SDS011;1730;41.932;25.548;2022-10-17T16:04:19;0.80;;;0.40;;
3433;SDS011;1730;41.932;25.548;2022-10-17T16:06:44;0.80;;;0.40;;
3433;SDS011;1730;41.932;25.548;2022-10-17T16:12:32;0.80;;;0.40;;
3433;SDS011;1730;41.932;25.548;2022-10-17T16:15:02;0.80;;;0.50;;
3433;SDS011;1730;41.932;25.548;2022-10-17T16:17:28;0.90;;;0.60;;
3433;SDS011;1730;41.932;25.548;2022-10-17T16:20:03;0.90;;;0.70;;
3433;SDS011;1730;41.932;25.548;2022-10-17T16:22:29;1.80;;;1.70;;
3433;SDS011;1730;41.932;25.548;2022-10-17T16:25:01;0.80;;;0.40;;
3433;SDS011;1730;41.932;25.548;2022-10-17T16:27:36;0.80;;;0.40;;
3433;SDS011;1730;41.932;25.548;2022-10-17T16:30:06;0.80;;;0.40;;
3433;SDS011;1730;41.932;25.548;2022-10-17T16:32:32;0.80;;;0.50;;
3433;SDS011;1730;41.932;25.548;2022-10-17T16:35:02;0.80;;;0.40;;
3433;SDS011;1730;41.932;25.548;2022-10-17T16:37:29;0.90;;;0.63;;
3433;SDS011;1730;41.932;25.548;2022-10-17T16:39:54;0.80;;;0.40;;
3433;SDS011;1730;41.932;25.548;2022-10-17T16:42:20;0.80;;;0.70;;
3433;SDS011;1730;41.932;25.548;2022-10-17T16:44:46;0.80;;;0.40;;
3433;SDS011;1730;41.932;25.548;2022-10-17T16:47:12;0.80;;;0.40;;
3433;SDS011;1730;41.932;25.548;2022-10-17T16:49:38;0.80;;;0.40;;
3433;SDS011;1730;41.932;25.548;2022-10-17T16:52:04;0.80;;;0.40;;
3433;SDS011;1730;41.932;25.548;2022-10-17T16:54:29;0.80;;;0.40;;
3433;SDS011;1730;41.932;25.548;2022-10-17T16:56:55;0.80;;;0.40;;
3433;SDS011;1730;41.932;25.548;2022-10-17T16:59:23;0.90;;;0.50;;
3433;SDS011;1730;41.932;25.548;2022-10-17T17:01:49;0.87;;;0.60;;
3433;SDS011;1730;41.932;25.548;2022-10-17T17:04:15;0.80;;;0.50;;
3433;SDS011;1730;41.932;25.548;2022-10-17T17:06:40;0.80;;;0.40;;
3433;SDS011;1730;41.932;25.548;2022-10-17T17:09:06;0.97;;;0.87;;
3433;SDS011;1730;41.932;25.548;2022-10-17T17:11:33;1.73;;;1.57;;
3433;SDS011;1730;41.932;25.548;2022-10-17T17:13:59;2.90;;;2.00;;
3433;SDS011;1730;41.932;25.548;2022-10-17T17:16:26;0.90;;;0.70;;
3433;SDS011;1730;41.932;25.548;2022-10-17T17:19:03;0.90;;;0.70;;
3433;SDS011;1730;41.932;25.548;2022-10-17T17:21:34;0.90;;;0.70;;
3433;SDS011;1730;41.932;25.548;2022-10-17T17:24:00;1.00;;;0.87;;
3433;SDS011;1730;41.932;25.548;2022-10-17T17:26:27;2.07;;;1.97;;
3433;SDS011;1730;41.932;25.548;2022-10-17T17:28:56;9.20;;;2.67;;
3433;SDS011;1730;41.932;25.548;2022-10-17T17:31:23;0.90;;;0.80;;
3433;SDS011;1730;41.932;25.548;2022-10-17T17:33:51;0.80;;;0.40;;
3433;SDS011;1730;41.932;25.548;2022-10-17T17:36:21;0.80;;;0.50;;
3433;SDS011;1730;41.932;25.548;2022-10-17T17:38:49;0.80;;;0.50;;
3433;SDS011;1730;41.932;25.548;2022-10-17T17:41:16;0.90;;;0.70;;
3433;SDS011;1730;41.932;25.548;2022-10-17T17:43:43;0.80;;;0.40;;
3433;SDS011;1730;41.932;25.548;2022-10-17T17:46:10;0.80;;;0.50;;
3433;SDS011;1730;41.932;25.548;2022-10-17T17:48:36;1.87;;;1.37;;
3433;SDS011;1730;41.932;25.548;2022-10-17T17:51:03;0.80;;;0.40;;
3433;SDS011;1730;41.932;25.548;2022-10-17T17:53:30;0.93;;;0.83;;
3433;SDS011;1730;41.932;25.548;2022-10-17T17:56:09;1.23;;;1.13;;
3433;SDS011;1730;41.932;25.548;2022-10-17T17:58:38;0.80;;;0.40;;
3433;SDS011;1730;41.932;25.548;2022-10-17T18:01:17;1.00;;;0.90;;
3433;SDS011;1730;41.932;25.548;2022-10-17T18:03:47;1.13;;;0.80;;
3433;SDS011;1730;41.932;25.548;2022-10-17T18:06:16;0.90;;;0.80;;